Time;durP1;ratioP1;P1;durP2;ratioP2;P2;SDS_P1;SDS_P2;PMS_P1;PMS_P2;Temp;Humidity;BMP_temperature;BMP_pressure;BME280_temperature;BME280_humidity;BME280_pressure;Samples;Min_cycle;Max_cycle;Signal;HPM_P1;HPM_P2
2023/09/03 00:01:37;;;;;;;5.00;3.90;;;;;;;19.38;70.07;100783.07;84115;283;136262;-61
2023/09/03 00:03:39;;;;;;;4.90;4.50;;;;;;;19.34;70.43;100782.65;84295;283;25217;-60
2023/09/03 00:05:51;;;;;;;4.80;4.30;;;;;;;19.38;71.28;100781.61;84048;283;136843;-60
2023/09/03 00:07:53;;;;;;;5.70;4.70;;;;;;;19.40;73.57;100781.17;84351;283;22565;-61
2023/09/03 00:09:55;;;;;;;4.70;4.20;;;;;;;19.39;74.82;100783.14;84103;283;136781;-62
2023/09/03 00:11:56;;;;;;;3.60;3.00;;;;;;;19.37;73.45;100782.13;84183;283;24163;-58
2023/09/03 00:14:01;;;;;;;5.40;3.80;;;;;;;19.41;71.29;100780.12;84052;283;136572;-61
2023/09/03 00:16:03;;;;;;;3.60;3.40;;;;;;;19.46;71.10;100777.04;84083;284;136693;-62
2023/09/03 00:18:07;;;;;;;4.70;4.10;;;;;;;19.46;71.12;100778.93;84215;283;22547;-61
2023/09/03 00:20:11;;;;;;;5.10;4.60;;;;;;;19.46;71.43;100776.70;84098;284;136465;-61
2023/09/03 00:22:12;;;;;;;5.10;4.60;;;;;;;19.33;72.22;100775.70;84199;284;22661;-60
2023/09/03 00:24:14;;;;;;;6.40;4.80;;;;;;;19.31;72.33;100771.82;84039;284;136664;-63
2023/09/03 00:26:19;;;;;;;4.60;4.20;;;;;;;19.31;72.21;100775.66;84944;284;25225;-61
2023/09/03 00:28:25;;;;;;;5.90;4.50;;;;;;;19.35;72.49;100772.58;84207;284;137988;-62
2023/09/03 00:30:27;;;;;;;4.10;3.80;;;;;;;19.32;71.96;100772.38;84226;284;25135;-61
2023/09/03 00:32:30;;;;;;;4.50;4.10;;;;;;;19.31;71.49;100769.35;84100;284;136028;-60
2023/09/03 00:34:32;;;;;;;5.10;3.70;;;;;;;19.32;71.43;100768.72;84155;284;26226;-61
2023/09/03 00:36:35;;;;;;;4.20;3.90;;;;;;;19.30;71.36;100766.13;83961;283;136453;-59
2023/09/03 00:38:39;;;;;;;4.40;4.00;;;;;;;19.31;71.30;100763.70;84362;283;22662;-60
2023/09/03 00:40:40;;;;;;;3.80;3.50;;;;;;;19.32;70.73;100759.32;84122;283;138253;-62
2023/09/03 00:42:42;;;;;;;5.70;3.80;;;;;;;19.31;70.61;100759.71;84192;284;22601;-60
2023/09/03 00:44:44;;;;;;;2.60;2.40;;;;;;;19.35;70.41;100757.98;84124;283;137746;-59
2023/09/03 00:46:46;;;;;;;3.70;3.40;;;;;;;19.34;69.41;100756.88;84191;283;25297;-60
2023/09/03 00:48:49;;;;;;;4.00;3.50;;;;;;;19.31;69.34;100754.15;84032;283;136269;-59
2023/09/03 00:50:52;;;;;;;3.30;3.10;;;;;;;19.35;68.83;100749.97;83975;284;22540;-60
2023/09/03 00:52:55;;;;;;;3.10;2.90;;;;;;;19.38;68.37;100751.13;84070;284;136170;-59
2023/09/03 00:54:57;;;;;;;3.50;3.30;;;;;;;19.39;68.46;100749.75;84391;283;22554;-61
2023/09/03 00:56:59;;;;;;;4.60;3.90;;;;;;;19.40;69.02;100752.24;84128;252;136335;-59
2023/09/03 00:59:02;;;;;;;3.90;3.60;;;;;;;19.38;69.35;100748.81;84243;284;24102;-61
2023/09/03 01:01:05;;;;;;;3.90;3.60;;;;;;;19.39;68.65;100747.52;84124;283;136630;-58
2023/09/03 01:03:07;;;;;;;3.40;2.50;;;;;;;19.40;68.34;100750.19;84248;282;25190;-62
2023/09/03 01:05:10;;;;;;;3.50;3.30;;;;;;;19.41;67.23;100743.73;84255;282;137778;-62
2023/09/03 01:07:15;;;;;;;;;;;;;;;19.52;67.58;100747.68;84303;282;22642;-62
2023/09/03 01:09:18;;;;;;;3.80;3.50;;;;;;;19.55;68.25;100747.42;84192;283;122901;-60
2023/09/03 01:12:00;;;;;;;4.20;3.80;;;;;;;19.53;68.76;100749.95;84355;284;22691;-64
2023/09/03 01:14:15;;;;;;;3.90;3.60;;;;;;;19.49;68.68;100744.07;83838;280;137208;-62
2023/09/03 01:16:40;;;;;;;4.30;3.90;;;;;;;19.44;68.95;100743.59;84032;283;136899;-60
2023/09/03 01:18:43;;;;;;;6.10;4.00;;;;;;;19.44;69.19;100743.79;84211;283;25131;-60
2023/09/03 01:21:10;;;;;;;5.00;3.90;;;;;;;19.47;68.96;100743.76;84076;284;137178;-62
2023/09/03 01:23:32;;;;;;;4.50;4.10;;;;;;;19.42;68.74;100726.07;84076;285;22542;-60
2023/09/03 01:26:01;;;;;;;3.40;3.20;;;;;;;19.59;68.57;100738.71;84045;283;136483;-61
2023/09/03 01:28:19;;;;;;;4.60;4.10;;;;;;;19.58;68.83;100739.86;84101;283;137119;-62
2023/09/03 01:30:24;;;;;;;5.90;4.30;;;;;;;19.56;68.13;100740.74;84225;272;25177;-63
2023/09/03 01:35:00;;;;;;;4.30;4.00;;;;;;;19.33;69.37;100737.34;82948;305;546864;-64
2023/09/03 01:37:04;;;;;;;4.90;4.20;;;;;;;19.33;68.89;100734.73;83494;292;135911;-61
2023/09/03 01:39:06;;;;;;;4.10;3.80;;;;;;;19.36;68.96;100733.67;83499;296;25713;-63
2023/09/03 01:41:08;;;;;;;3.90;3.50;;;;;;;19.35;68.46;100730.57;83470;282;136850;-62
2023/09/03 01:43:10;;;;;;;4.10;3.60;;;;;;;19.28;68.42;100728.24;83584;284;22556;-62
2023/09/03 01:45:12;;;;;;;4.10;3.50;;;;;;;19.24;68.47;100731.48;83524;294;135908;-61
2023/09/03 01:47:22;;;;;;;3.70;3.50;;;;;;;19.25;68.10;100727.72;83744;294;23031;-62
2023/09/03 01:49:34;;;;;;;3.70;3.50;;;;;;;19.30;67.67;100729.05;83068;294;655662;-63
2023/09/03 01:51:42;;;;;;;3.40;3.20;;;;;;;19.25;67.73;100728.94;83866;292;26231;-63
2023/09/03 01:54:07;;;;;;;4.90;3.60;;;;;;;19.32;67.40;100726.82;83535;292;135745;-65
2023/09/03 01:56:13;;;;;;;3.50;3.10;;;;;;;19.35;67.21;100727.59;83423;294;137867;-63
2023/09/03 01:58:16;;;;;;;3.30;3.00;;;;;;;19.33;67.00;100727.38;83661;292;22710;-62
2023/09/03 02:00:19;;;;;;;3.50;2.80;;;;;;;19.31;67.10;100728.42;83513;294;136732;-61
2023/09/03 02:02:21;;;;;;;3.40;3.20;;;;;;;19.33;66.16;100729.13;83658;294;21540;-61
2023/09/03 02:04:24;;;;;;;3.60;3.40;;;;;;;19.36;66.58;100731.67;83753;287;137372;-60
2023/09/03 02:06:27;;;;;;;3.60;3.10;;;;;;;19.36;66.41;100729.72;84049;287;22550;-59
2023/09/03 02:08:31;;;;;;;3.40;3.20;;;;;;;19.36;66.43;100731.23;83892;287;137341;-58
2023/09/03 02:10:33;;;;;;;3.80;3.60;;;;;;;19.33;66.77;100727.70;83948;287;24746;-60
2023/09/03 02:12:35;;;;;;;3.90;3.50;;;;;;;19.23;66.92;100728.63;83905;288;135650;-59
2023/09/03 02:14:38;;;;;;;4.70;3.20;;;;;;;19.16;67.32;100729.55;83986;288;22556;-61
2023/09/03 02:16:39;;;;;;;3.40;3.20;;;;;;;19.13;68.05;100731.44;84146;286;136061;-62
2023/09/03 02:18:41;;;;;;;4.50;3.70;;;;;;;19.10;68.53;100730.88;84129;274;22549;-61
2023/09/03 02:20:43;;;;;;;3.50;3.20;;;;;;;19.10;70.05;100730.13;83968;285;137503;-61
2023/09/03 02:22:47;;;;;;;4.20;3.80;;;;;;;19.10;70.65;100735.48;84049;287;25088;-62
2023/09/03 02:24:50;;;;;;;4.20;3.70;;;;;;;19.10;71.11;100730.88;83859;287;136682;-63
2023/09/03 02:26:52;;;;;;;4.20;3.80;;;;;;;19.10;71.49;100732.40;86450;286;23578;-62
2023/09/03 02:28:53;;;;;;;4.00;3.70;;;;;;;19.13;71.36;100736.41;83840;287;136151;-61
2023/09/03 02:30:55;;;;;;;4.40;4.00;;;;;;;19.15;71.21;100738.84;83979;287;22636;-61
2023/09/03 02:32:57;;;;;;;7.80;4.60;;;;;;;19.14;71.37;100738.86;83864;287;136092;-64
2023/09/03 02:34:59;;;;;;;4.80;4.40;;;;;;;19.10;71.44;100737.09;83875;288;24110;-64
2023/09/03 02:37:02;;;;;;;5.20;4.70;;;;;;;19.08;71.58;100739.17;83903;286;137154;-61
2023/09/03 02:39:05;;;;;;;4.80;4.30;;;;;;;19.07;71.46;100737.44;84011;288;25230;-63
2023/09/03 02:41:07;;;;;;;6.60;5.10;;;;;;;19.04;71.17;100739.91;83857;287;135810;-60
2023/09/03 02:43:09;;;;;;;4.90;4.30;;;;;;;19.06;71.29;100736.24;84034;285;23378;-62
2023/09/03 02:45:10;;;;;;;4.90;4.50;;;;;;;19.05;71.43;100735.36;83769;287;137747;-60
2023/09/03 02:47:12;;;;;;;4.10;3.70;;;;;;;18.99;71.76;100736.63;83873;289;22900;-63
2023/09/03 02:49:15;;;;;;;4.00;3.70;;;;;;;18.98;71.70;100736.86;83886;287;136316;-62
2023/09/03 02:51:18;;;;;;;4.60;4.20;;;;;;;18.95;71.78;100737.23;84069;286;22575;-65
2023/09/03 02:53:20;;;;;;;4.10;3.70;;;;;;;18.93;71.68;100739.94;83931;286;136074;-62
2023/09/03 02:55:21;;;;;;;5.50;4.60;;;;;;;18.90;71.88;100738.23;83847;289;22555;-62
2023/09/03 02:57:23;;;;;;;4.00;3.60;;;;;;;18.92;71.91;100738.94;83830;286;137842;-61
2023/09/03 02:59:25;;;;;;;4.00;3.70;;;;;;;18.97;71.92;100736.54;83990;287;25210;-64
2023/09/03 03:01:27;;;;;;;4.90;4.40;;;;;;;18.99;71.92;100737.54;83992;288;136679;-67
2023/09/03 03:03:29;;;;;;;4.70;3.70;;;;;;;19.00;71.80;100735.14;84178;287;25173;-62
2023/09/03 03:05:31;;;;;;;5.80;3.90;;;;;;;18.99;71.82;100737.45;83894;288;137135;-61
2023/09/03 03:07:33;;;;;;;4.80;3.90;;;;;;;18.96;71.95;100741.04;84012;275;22558;-62
2023/09/03 03:09:35;;;;;;;5.10;4.50;;;;;;;18.89;72.21;100745.56;84027;287;135633;-62
2023/09/03 03:11:37;;;;;;;5.70;4.80;;;;;;;18.82;72.65;100750.48;84107;286;23886;-61
2023/09/03 03:13:41;;;;;;;4.80;4.40;;;;;;;18.81;72.69;100756.45;84000;288;137680;-62
2023/09/03 03:15:43;;;;;;;5.70;4.20;;;;;;;18.77;72.98;100756.61;84060;288;22576;-62
2023/09/03 03:17:45;;;;;;;4.40;4.00;;;;;;;18.71;73.32;100755.09;84265;286;138807;-61
2023/09/03 03:19:50;;;;;;;5.00;4.10;;;;;;;18.63;74.03;100754.89;84203;283;22677;-61
2023/09/03 03:21:52;;;;;;;4.50;4.20;;;;;;;18.62;74.33;100751.73;84074;287;136747;-65
2023/09/03 03:23:54;;;;;;;5.30;4.80;;;;;;;18.63;74.67;100751.66;84074;287;22141;-60
2023/09/03 03:26:04;;;;;;;4.30;3.90;;;;;;;18.63;74.73;100749.93;84086;287;136817;-63
2023/09/03 03:28:07;;;;;;;5.70;4.80;;;;;;;18.64;74.99;100750.17;83991;287;137167;-61
2023/09/03 03:30:11;;;;;;;4.80;4.20;;;;;;;18.70;74.77;100744.81;84167;286;22652;-62
2023/09/03 03:32:13;;;;;;;5.40;4.60;;;;;;;18.67;74.68;100746.05;84115;287;136098;-64
2023/09/03 03:34:17;;;;;;;4.40;3.90;;;;;;;18.66;74.80;100744.33;84099;287;22595;-64
2023/09/03 03:36:21;;;;;;;7.10;4.40;;;;;;;18.59;74.81;100741.78;83970;286;136178;-61
2023/09/03 03:38:22;;;;;;;4.60;4.20;;;;;;;18.66;74.71;100743.20;84134;288;25238;-61
2023/09/03 03:40:24;;;;;;;5.80;4.20;;;;;;;18.66;74.31;100741.47;84023;286;137304;-63
2023/09/03 03:42:26;;;;;;;4.90;4.50;;;;;;;18.65;74.42;100741.39;83921;287;25200;-62
2023/09/03 03:44:28;;;;;;;3.70;3.40;;;;;;;18.65;74.37;100744.64;83873;286;136007;-63
2023/09/03 03:46:30;;;;;;;3.60;3.30;;;;;;;18.64;74.09;100750.80;83922;287;22394;-62
2023/09/03 03:48:33;;;;;;;4.30;3.80;;;;;;;18.62;73.99;100750.94;83650;290;136195;-63
2023/09/03 03:50:34;;;;;;;7.70;3.60;;;;;;;18.65;74.10;100751.87;84063;286;24052;-63
2023/09/03 03:52:36;;;;;;;3.70;3.40;;;;;;;18.67;73.95;100750.20;84049;284;136515;-64
2023/09/03 03:54:38;;;;;;;3.40;3.10;;;;;;;18.70;73.88;100750.59;84413;278;25273;-62
2023/09/03 03:56:40;;;;;;;5.90;4.50;;;;;;;18.69;73.95;100746.20;84222;281;135673;-65
2023/09/03 03:58:42;;;;;;;7.70;4.40;;;;;;;18.71;74.20;100745.64;84386;281;22552;-62
2023/09/03 04:00:44;;;;;;;3.80;3.50;;;;;;;18.71;74.33;100747.64;84188;283;136722;-62
2023/09/03 04:02:46;;;;;;;4.10;3.80;;;;;;;18.72;73.65;100749.00;84246;281;25211;-64
2023/09/03 04:04:52;;;;;;;4.80;3.00;;;;;;;18.70;73.31;100748.38;84201;281;136380;-62
2023/09/03 04:06:54;;;;;;;6.70;3.80;;;;;;;18.69;73.11;100750.57;84144;282;24094;-62
2023/09/03 04:08:56;;;;;;;4.80;3.70;;;;;;;18.67;73.17;100743.55;84178;282;135964;-63
2023/09/03 04:11:02;;;;;;;5.30;3.60;;;;;;;18.68;72.78;100743.95;84107;283;22620;-64
2023/09/03 04:13:04;;;;;;;4.40;2.60;;;;;;;18.71;72.22;100738.60;84174;281;135932;-64
2023/09/03 04:15:07;;;;;;;3.00;2.70;;;;;;;18.74;72.00;100738.64;84588;282;24026;-63
2023/09/03 04:17:09;;;;;;;3.20;3.00;;;;;;;18.76;71.99;100730.87;84085;283;137801;-62
2023/09/03 04:19:11;;;;;;;4.30;2.90;;;;;;;18.78;72.20;100732.64;84378;280;25626;-61
2023/09/03 04:21:13;;;;;;;4.10;3.80;;;;;;;18.77;72.63;100730.39;84631;281;137849;-58
2023/09/03 04:23:15;;;;;;;3.70;3.40;;;;;;;18.77;72.96;100732.72;84574;283;24103;-64
2023/09/03 04:25:17;;;;;;;3.70;3.40;;;;;;;18.80;73.42;100734.64;84562;282;137448;-58
2023/09/03 04:27:19;;;;;;;3.80;3.50;;;;;;;18.83;73.62;100729.44;84246;283;22789;-61
2023/09/03 04:29:21;;;;;;;4.40;4.10;;;;;;;18.85;73.68;100734.08;83981;283;135795;-62
2023/09/03 04:31:23;;;;;;;4.10;3.80;;;;;;;18.84;74.03;100736.17;84208;281;22561;-66
2023/09/03 04:33:27;;;;;;;3.90;3.40;;;;;;;18.82;73.73;100739.95;84040;283;136179;-63
2023/09/03 04:35:30;;;;;;;3.60;3.40;;;;;;;18.81;72.77;100743.11;84143;283;24163;-59
2023/09/03 04:37:33;;;;;;;5.10;4.30;;;;;;;18.79;72.96;100740.67;84132;282;136182;-59
2023/09/03 04:39:36;;;;;;;3.90;3.20;;;;;;;18.78;72.98;100740.36;84184;283;23954;-65
2023/09/03 04:41:38;;;;;;;3.80;3.40;;;;;;;18.79;72.84;100743.42;84238;278;137031;-62
2023/09/03 04:43:46;;;;;;;3.70;2.50;;;;;;;18.82;72.70;100745.84;84313;282;23615;-58
2023/09/03 04:45:54;;;;;;;4.70;3.10;;;;;;;18.82;72.71;100745.31;84348;281;136515;-61
2023/09/03 04:47:58;;;;;;;3.90;3.40;;;;;;;18.80;72.84;100740.42;84861;281;22650;-63
2023/09/03 04:50:03;;;;;;;3.20;3.00;;;;;;;18.81;72.57;100744.91;84202;282;136967;-64
2023/09/03 04:52:05;;;;;;;4.40;3.20;;;;;;;18.81;72.73;100741.54;84172;281;137176;-59
2023/09/03 04:54:07;;;;;;;3.10;2.80;;;;;;;18.80;72.45;100740.17;84336;281;25667;-60
2023/09/03 04:56:12;;;;;;;4.20;3.80;;;;;;;18.82;72.64;100736.92;84121;283;136300;-62
2023/09/03 04:58:17;;;;;;;4.10;3.80;;;;;;;18.81;72.81;100737.17;84218;283;22840;-62
2023/09/03 05:00:20;;;;;;;4.60;3.90;;;;;;;18.83;73.01;100738.64;84119;282;136417;-61
2023/09/03 05:02:23;;;;;;;5.20;3.70;;;;;;;18.84;73.38;100738.50;84174;284;28177;-61
2023/09/03 05:04:26;;;;;;;4.50;4.10;;;;;;;18.88;73.49;100742.30;84213;282;136414;-60
2023/09/03 05:06:28;;;;;;;4.00;3.10;;;;;;;18.93;72.64;100741.23;84168;281;25335;-56
2023/09/03 05:08:31;;;;;;;4.10;3.70;;;;;;;18.96;72.67;100737.05;84090;281;137493;-62
2023/09/03 05:10:34;;;;;;;3.90;3.60;;;;;;;19.00;72.76;100737.52;84185;282;22649;-61
2023/09/03 05:12:40;;;;;;;5.70;3.60;;;;;;;19.05;72.49;100739.52;84143;282;138386;-63
2023/09/03 05:14:43;;;;;;;3.30;2.90;;;;;;;19.09;72.32;100737.98;84456;282;24137;-57
2023/09/03 05:16:45;;;;;;;6.80;3.70;;;;;;;19.09;72.07;100738.25;84079;284;136149;-58
2023/09/03 05:18:47;;;;;;;3.90;2.80;;;;;;;19.09;72.25;100738.91;84320;281;22595;-55
2023/09/03 05:20:48;;;;;;;5.70;3.70;;;;;;;19.09;72.29;100739.29;84105;281;136431;-59
2023/09/03 05:22:51;;;;;;;4.40;4.10;;;;;;;19.09;72.74;100735.21;84112;283;22573;-57
2023/09/03 05:24:53;;;;;;;4.70;4.30;;;;;;;19.10;73.03;100739.14;84112;283;136794;-59
2023/09/03 05:26:54;;;;;;;4.80;4.30;;;;;;;19.12;73.12;100737.20;84159;281;22568;-59
2023/09/03 05:28:56;;;;;;;4.10;3.00;;;;;;;19.14;72.96;100737.30;84053;283;136927;-56
2023/09/03 05:30:59;;;;;;;3.90;3.30;;;;;;;19.15;72.95;100733.14;84330;281;24245;-56
2023/09/03 05:33:00;;;;;;;5.00;3.80;;;;;;;19.16;73.21;100731.05;84211;281;136607;-61
2023/09/03 05:35:05;;;;;;;3.50;3.30;;;;;;;19.18;73.48;100732.20;84141;283;22572;-61
2023/09/03 05:37:07;;;;;;;4.30;3.80;;;;;;;19.23;73.06;100729.02;84099;284;136785;-60
2023/09/03 05:39:09;;;;;;;4.30;3.80;;;;;;;19.27;72.81;100729.30;84196;281;22541;-58
2023/09/03 05:41:11;;;;;;;3.90;3.60;;;;;;;19.31;72.77;100731.34;84154;281;136718;-60
2023/09/03 05:43:13;;;;;;;3.80;3.50;;;;;;;19.32;72.77;100733.59;84024;283;22561;-62
2023/09/03 05:45:15;;;;;;;8.10;4.80;;;;;;;19.24;73.01;100728.98;83969;283;135212;-61
2023/09/03 05:47:18;;;;;;;3.90;3.30;;;;;;;19.21;73.46;100729.84;83996;283;22653;-60
2023/09/03 05:49:22;;;;;;;3.80;3.50;;;;;;;19.20;73.30;100732.84;84270;283;136258;-59
2023/09/03 05:51:26;;;;;;;4.00;3.70;;;;;;;19.21;73.32;100730.55;84181;282;22652;-59
2023/09/03 05:53:27;;;;;;;4.90;4.30;;;;;;;19.20;73.01;100728.84;84033;282;136193;-59
2023/09/03 05:55:29;;;;;;;5.70;5.20;;;;;;;19.21;72.91;100729.83;84139;282;22747;-60
2023/09/03 05:57:36;;;;;;;5.90;4.60;;;;;;;19.23;73.18;100730.33;84022;283;137840;-60
2023/09/03 05:59:38;;;;;;;4.50;4.10;;;;;;;19.27;72.96;100726.73;84097;283;22584;-61
2023/09/03 06:01:40;;;;;;;4.70;4.20;;;;;;;19.29;72.33;100727.19;84013;282;137859;-59
2023/09/03 06:03:42;;;;;;;5.00;4.60;;;;;;;19.33;72.20;100729.60;84121;283;25682;-58
2023/09/03 06:05:45;;;;;;;4.60;4.20;;;;;;;19.34;72.48;100729.48;84093;283;137261;-59
2023/09/03 06:07:47;;;;;;;4.80;3.80;;;;;;;19.38;72.54;100733.84;84240;284;25139;-62
2023/09/03 06:09:49;;;;;;;3.70;3.30;;;;;;;19.45;71.36;100733.70;84258;281;136938;-62
2023/09/03 06:11:51;;;;;;;4.20;3.90;;;;;;;19.53;71.08;100738.14;84334;282;23809;-60
2023/09/03 06:13:54;;;;;;;5.10;4.30;;;;;;;19.58;71.04;100732.96;84070;282;136364;-61
2023/09/03 06:15:57;;;;;;;4.40;3.90;;;;;;;19.62;70.80;100732.39;84140;270;24892;-59
2023/09/03 06:17:59;;;;;;;4.40;4.10;;;;;;;19.67;70.38;100736.59;84344;281;137477;-59
2023/09/03 06:20:03;;;;;;;4.40;4.00;;;;;;;19.71;70.87;100737.06;84076;282;22587;-61
2023/09/03 06:22:05;;;;;;;5.30;4.10;;;;;;;19.73;70.77;100738.31;84546;281;22582;-63
2023/09/03 06:24:07;;;;;;;7.30;4.40;;;;;;;19.72;70.66;100741.68;84230;282;137187;-61
2023/09/03 06:26:08;;;;;;;4.20;3.80;;;;;;;19.69;70.71;100739.02;84334;281;24065;-60
2023/09/03 06:28:10;;;;;;;3.10;2.90;;;;;;;19.71;70.10;100737.59;84303;281;136607;-61
2023/09/03 06:30:12;;;;;;;9.30;3.30;;;;;;;19.72;69.23;100740.73;84298;282;24144;-61
2023/09/03 06:32:14;;;;;;;4.10;3.60;;;;;;;19.76;69.17;100741.63;83945;282;136547;-60
2023/09/03 06:34:16;;;;;;;4.20;3.20;;;;;;;19.81;69.22;100742.91;84100;283;22571;-61
2023/09/03 06:36:18;;;;;;;3.40;3.10;;;;;;;19.86;69.05;100743.02;84015;283;136669;-62
2023/09/03 06:38:20;;;;;;;3.20;2.80;;;;;;;19.92;68.68;100739.98;84175;281;22540;-62
2023/09/03 06:40:23;;;;;;;3.50;3.30;;;;;;;19.97;68.57;100740.84;84070;283;136302;-62
2023/09/03 06:42:26;;;;;;;3.80;3.50;;;;;;;20.01;67.87;100743.96;84250;278;22580;-61
2023/09/03 06:44:28;;;;;;;3.90;3.60;;;;;;;20.07;68.10;100742.12;84115;282;136249;-62
2023/09/03 06:46:30;;;;;;;5.30;3.80;;;;;;;20.12;68.64;100740.52;84087;282;22630;-62
2023/09/03 06:48:32;;;;;;;3.30;3.00;;;;;;;20.18;68.81;100741.68;84027;282;136663;-62
2023/09/03 06:50:34;;;;;;;3.70;3.40;;;;;;;20.23;68.97;100740.00;84116;283;26324;-60
2023/09/03 06:52:36;;;;;;;4.80;3.80;;;;;;;20.29;68.91;100744.73;84168;282;137046;-59
2023/09/03 06:54:38;;;;;;;3.80;3.30;;;;;;;20.36;68.65;100742.27;84206;274;22571;-59
2023/09/03 06:56:39;;;;;;;4.10;3.70;;;;;;;20.40;68.38;100740.89;84176;281;137094;-63
2023/09/03 06:58:44;;;;;;;4.20;3.80;;;;;;;20.41;68.39;100737.05;84155;282;24177;-61
2023/09/03 07:00:46;;;;;;;3.80;3.60;;;;;;;20.43;68.42;100735.52;84088;282;136474;-62
2023/09/03 07:02:52;;;;;;;4.60;3.30;;;;;;;20.47;68.46;100733.96;84223;282;24066;-63
2023/09/03 07:04:56;;;;;;;4.60;3.80;;;;;;;20.50;68.38;100733.19;84140;281;136428;-60
2023/09/03 07:06:58;;;;;;;3.50;3.30;;;;;;;20.50;68.47;100727.63;84292;281;22992;-60
2023/09/03 07:09:05;;;;;;;4.40;4.00;;;;;;;20.59;68.40;100730.88;83996;283;137398;-60
2023/09/03 07:11:06;;;;;;;4.00;3.70;;;;;;;20.60;68.54;100722.73;84165;282;24260;-62
2023/09/03 07:13:09;;;;;;;4.10;3.70;;;;;;;20.75;68.31;100725.30;84152;282;136682;-61
2023/09/03 07:15:10;;;;;;;9.40;4.30;;;;;;;20.83;68.03;100728.30;84293;282;22552;-60
2023/09/03 07:17:12;;;;;;;4.30;3.90;;;;;;;20.90;67.74;100731.66;84048;282;137679;-61
2023/09/03 07:19:14;;;;;;;4.40;3.90;;;;;;;20.97;67.41;100732.52;84118;281;22852;-61
2023/09/03 07:21:16;;;;;;;3.90;3.60;;;;;;;21.07;67.12;100729.36;84075;281;136928;-61
2023/09/03 07:23:17;;;;;;;4.30;3.30;;;;;;;21.19;66.91;100731.97;84351;281;22564;-62
2023/09/03 07:25:19;;;;;;;4.50;3.30;;;;;;;21.27;66.68;100732.25;84089;282;136067;-62
2023/09/03 07:27:21;;;;;;;4.00;3.70;;;;;;;21.33;66.08;100732.67;84182;282;26225;-68
2023/09/03 07:29:23;;;;;;;2.70;2.50;;;;;;;21.46;65.38;100727.80;84091;282;136145;-69
2023/09/03 07:31:25;;;;;;;3.30;3.00;;;;;;;21.56;65.38;100727.45;84153;282;25221;-70
2023/09/03 07:33:27;;;;;;;3.50;3.20;;;;;;;21.64;64.72;100722.46;83936;281;137299;-69
2023/09/03 07:35:32;;;;;;;4.50;3.30;;;;;;;21.73;64.09;100724.96;84192;281;22618;-71
2023/09/03 07:37:34;;;;;;;3.40;3.10;;;;;;;21.83;63.31;100725.34;84614;281;137365;-71
2023/09/03 07:39:36;;;;;;;3.50;3.20;;;;;;;21.92;62.81;100726.66;84708;281;25367;-70
2023/09/03 07:41:39;;;;;;;2.70;2.50;;;;;;;21.93;61.98;100721.39;84328;281;136109;-72
2023/09/03 07:43:40;;;;;;;5.40;2.80;;;;;;;21.99;61.75;100727.75;84670;282;22546;-69
2023/09/03 07:45:42;;;;;;;7.10;3.60;;;;;;;22.01;61.51;100719.84;84012;282;136132;-70
2023/09/03 07:47:44;;;;;;;5.30;2.70;;;;;;;22.00;61.48;100722.48;83991;283;23743;-68
2023/09/03 07:49:46;;;;;;;3.00;2.70;;;;;;;21.96;61.54;100724.14;84025;281;136985;-70
2023/09/03 07:51:47;;;;;;;2.70;2.50;;;;;;;21.94;61.40;100723.84;84151;281;25249;-70
2023/09/03 07:53:49;;;;;;;6.10;2.60;;;;;;;21.90;61.19;100722.98;84362;284;136519;-68
2023/09/03 07:55:51;;;;;;;3.40;2.80;;;;;;;21.91;61.45;100725.00;84624;282;24110;-69
2023/09/03 07:57:53;;;;;;;3.20;2.80;;;;;;;21.92;61.52;100724.69;84106;281;137212;-71
2023/09/03 07:59:55;;;;;;;5.60;2.40;;;;;;;21.93;61.61;100726.50;84257;282;22561;-70
2023/09/03 08:01:58;;;;;;;4.20;2.30;;;;;;;21.95;61.56;100724.46;84288;282;137162;-69
2023/09/03 08:04:01;;;;;;;3.60;3.30;;;;;;;21.98;61.30;100719.09;84117;283;22547;-70
2023/09/03 08:06:03;;;;;;;3.20;2.50;;;;;;;21.99;61.54;100719.71;84136;282;24477;-69
2023/09/03 08:08:05;;;;;;;2.50;2.30;;;;;;;22.02;61.53;100724.08;84147;278;136408;-69
2023/09/03 08:10:07;;;;;;;2.30;2.20;;;;;;;22.06;61.27;100728.52;84420;281;24054;-69
2023/09/03 08:12:09;;;;;;;3.10;2.90;;;;;;;22.11;61.00;100725.05;84385;281;138466;-70
2023/09/03 08:14:11;;;;;;;3.60;2.40;;;;;;;22.16;60.91;100728.58;84579;281;25316;-70
2023/09/03 08:16:14;;;;;;;2.40;2.00;;;;;;;22.21;60.83;100724.45;84297;283;136495;-70
2023/09/03 08:18:16;;;;;;;2.90;2.70;;;;;;;22.25;60.92;100718.73;84386;281;22558;-70
2023/09/03 08:20:19;;;;;;;5.00;2.10;;;;;;;22.31;61.01;100719.48;84335;281;136589;-69
2023/09/03 08:22:21;;;;;;;3.10;2.60;;;;;;;22.35;60.61;100720.48;84463;281;22547;-70
2023/09/03 08:24:23;;;;;;;2.90;2.60;;;;;;;22.40;60.14;100720.85;84372;286;137374;-70
2023/09/03 08:26:24;;;;;;;2.30;2.00;;;;;;;22.48;59.34;100721.25;84449;283;23867;-70
2023/09/03 08:28:26;;;;;;;2.10;1.80;;;;;;;22.51;59.01;100715.80;84362;281;136108;-69
2023/09/03 08:30:28;;;;;;;2.50;2.30;;;;;;;22.59;58.97;100718.89;84440;281;22594;-69
2023/09/03 08:32:30;;;;;;;2.20;1.90;;;;;;;22.64;58.48;100710.36;84310;282;136008;-71
2023/09/03 08:34:31;;;;;;;2.30;2.00;;;;;;;22.71;58.29;100716.05;84498;282;22547;-67
2023/09/03 08:36:33;;;;;;;2.70;2.50;;;;;;;22.77;58.16;100713.93;84175;281;136514;-69
2023/09/03 08:38:35;;;;;;;1.80;1.70;;;;;;;22.81;58.05;100709.49;84190;281;25173;-69
2023/09/03 08:40:37;;;;;;;2.60;2.40;;;;;;;22.89;57.76;100710.64;84047;283;137284;-69
2023/09/03 08:42:43;;;;;;;1.70;1.60;;;;;;;22.94;57.71;100712.04;84267;281;26345;-71
2023/09/03 08:44:55;;;;;;;3.30;1.80;;;;;;;23.01;56.98;100718.23;84388;282;137546;-69
2023/09/03 08:47:03;;;;;;;2.80;2.20;;;;;;;23.12;55.81;100709.95;84321;282;22540;-70
2023/09/03 08:49:04;;;;;;;2.40;1.80;;;;;;;23.17;55.06;100706.44;84498;282;137975;-69
2023/09/03 08:51:08;;;;;;;6.00;1.80;;;;;;;23.17;53.48;100715.80;84230;282;22544;-70
2023/09/03 08:53:11;;;;;;;1.90;1.50;;;;;;;23.13;53.77;100716.96;84109;281;136632;-69
2023/09/03 08:55:16;;;;;;;3.00;1.50;;;;;;;23.11;53.32;100718.21;84337;281;22810;-72
2023/09/03 08:57:18;;;;;;;1.30;1.00;;;;;;;23.08;53.14;100713.30;84265;283;137132;-69
2023/09/03 08:59:20;;;;;;;3.40;1.30;;;;;;;23.01;53.21;100720.13;84218;281;22578;-69
2023/09/03 09:01:23;;;;;;;1.50;1.10;;;;;;;22.89;52.55;100713.58;84246;281;136921;-69
2023/09/03 09:03:29;;;;;;;1.70;1.20;;;;;;;22.81;52.55;100718.61;84278;282;22887;-69
2023/09/03 09:05:33;;;;;;;1.90;1.30;;;;;;;22.78;51.89;100723.29;84149;281;138089;-69
2023/09/03 09:07:36;;;;;;;1.50;1.40;;;;;;;22.63;52.08;100715.13;84235;281;22544;-71
2023/09/03 09:09:39;;;;;;;2.90;0.80;;;;;;;22.57;52.32;100720.67;84191;278;136095;-70
2023/09/03 09:11:48;;;;;;;1.60;1.00;;;;;;;22.54;51.48;100716.74;84438;282;25270;-66
2023/09/03 09:13:57;;;;;;;0.70;0.70;;;;;;;22.52;51.68;100714.88;84218;281;136418;-70
2023/09/03 09:15:59;;;;;;;1.30;0.50;;;;;;;22.50;51.08;100709.27;84366;281;22569;-69
2023/09/03 09:18:01;;;;;;;0.50;0.50;;;;;;;22.46;51.57;100714.11;84290;281;137504;-70
2023/09/03 09:20:05;;;;;;;1.70;1.10;;;;;;;22.41;51.75;100714.02;84630;282;22587;-70
2023/09/03 09:22:07;;;;;;;2.10;0.90;;;;;;;22.39;52.82;100717.36;84582;282;25262;-70
2023/09/03 09:24:11;;;;;;;0.80;0.80;;;;;;;22.39;53.02;100719.31;84171;282;136306;-66
2023/09/03 09:26:22;;;;;;;3.20;0.90;;;;;;;22.38;52.75;100720.40;84449;282;22932;-69
2023/09/03 09:28:25;;;;;;;1.40;0.80;;;;;;;22.37;52.05;100720.45;85628;283;136888;-68
2023/09/03 09:30:28;;;;;;;1.30;1.00;;;;;;;22.36;50.54;100715.27;84566;282;22543;-69
2023/09/03 09:32:30;;;;;;;1.00;0.90;;;;;;;22.34;51.00;100723.95;84577;282;137121;-70
2023/09/03 09:34:41;;;;;;;1.50;1.00;;;;;;;22.33;51.38;100721.66;84711;281;22577;-69
2023/09/03 09:36:54;;;;;;;3.80;1.00;;;;;;;22.41;51.29;100723.80;84303;283;136339;-69
2023/09/03 09:39:06;;;;;;;2.50;0.50;;;;;;;22.40;51.34;100717.71;84361;282;22565;-70
2023/09/03 09:41:27;;;;;;;1.70;0.60;;;;;;;22.33;51.53;100718.41;84558;281;136273;-70